Time;durP1;ratioP1;P1;durP2;ratioP2;P2;SDS_P1;SDS_P2;PMS_P1;PMS_P2;Temp;Humidity;BMP_temperature;BMP_pressure;BME280_temperature;BME280_humidity;BME280_pressure;Samples;Min_cycle;Max_cycle;Signal;HPM_P1;HPM_P2
2023/04/10 00:01:02;;;;;;;9.68;6.38;;;;;;;6.87;95.08;101983.44;5006147;28;20018;-96
2023/04/10 00:06:36;;;;;;;10.60;6.43;;;;;;;6.86;95.19;101971.94;5106349;23;20058;-96
2023/04/10 00:09:38;;;;;;;10.77;6.70;;;;;;;7.09;94.68;101984.03;5019679;28;20033;-96
2023/04/10 00:13:03;;;;;;;;;;;;;;;;;;;;;
2023/04/10 00:15:46;;;;;;;10.88;6.30;;;;;;;6.90;94.52;101937.72;4961851;28;20091;-96
2023/04/10 00:18:15;;;;;;;10.48;6.13;;;;;;;6.89;93.96;101928.91;4946505;29;20055;-96
2023/04/10 00:25:06;;;;;;;11.07;6.75;;;;;;;7.16;93.48;101957.38;4982199;23;20111;-96
2023/04/10 00:28:16;;;;;;;;;;;;;;;;;;;;;
2023/04/10 00:30:41;;;;;;;10.77;7.35;;;;;;;6.91;93.98;101923.38;5003376;28;20105;-96
2023/04/10 00:33:19;;;;;;;9.77;6.10;;;;;;;7.01;93.77;101941.63;5002534;28;20113;-96
2023/04/10 00:36:42;;;;;;;;;;;;;;;;;;;;;
2023/04/10 00:39:33;;;;;;;;;;;;;;;;;;;;;
2023/04/10 01:07:24;;;;;;;10.27;6.65;;;;;;;6.87;93.24;101925.63;4998686;28;20154;-96
2023/04/10 01:16:41;;;;;;;9.70;5.93;;;;;;;6.86;93.81;101923.19;5017534;28;20050;-96
2023/04/10 01:19:46;;;;;;;10.20;6.32;;;;;;;6.87;93.68;101919.50;5015396;28;20034;-96
2023/04/10 01:26:24;;;;;;;8.77;5.60;;;;;;;6.85;94.00;101906.34;4931230;29;20312;-96
2023/04/10 01:38:26;;;;;;;;;;;;;;;;;;;;;
2023/04/10 01:51:07;;;;;;;9.48;6.05;;;;;;;6.61;94.83;101895.31;5035875;28;20100;-96
2023/04/10 01:54:22;;;;;;;11.87;6.23;;;;;;;6.58;95.41;101894.88;5024325;28;20111;-96
2023/04/10 01:57:18;;;;;;;;;;;;;;;;;;;;;
2023/04/10 02:00:50;;;;;;;10.38;6.68;;;;;;;6.28;95.65;101856.19;4987207;28;20065;-96
2023/04/10 02:20:20;;;;;;;11.15;6.32;;;;;;;6.11;97.46;101837.13;4934309;29;20055;-96
2023/04/10 02:49:18;;;;;;;12.63;7.32;;;;;;;6.06;98.86;101835.06;5027707;28;20073;-96
2023/04/10 02:58:20;;;;;;;10.25;6.72;;;;;;;6.04;98.80;101844.25;5410363;23;20081;-96
2023/04/10 03:09:51;;;;;;;10.30;6.15;;;;;;;6.02;98.21;101844.47;5038884;28;20036;-96
2023/04/10 03:12:47;;;;;;;9.32;6.00;;;;;;;5.74;98.11;101805.53;5006296;28;20038;-96
2023/04/10 03:22:18;;;;;;;11.40;6.00;;;;;;;5.83;99.76;101856.69;4926256;23;20040;-96
2023/04/10 03:27:35;;;;;;;;;;;;;;;;;;;;;
2023/04/10 03:30:11;;;;;;;13.07;6.75;;;;;;;5.77;100.00;101849.50;5031967;28;20057;-96
2023/04/10 03:33:05;;;;;;;10.23;6.53;;;;;;;5.74;100.00;101841.91;5009763;28;20093;-96
2023/04/10 03:35:40;;;;;;;10.70;6.40;;;;;;;5.72;100.00;101843.94;4993373;28;20026;-96
2023/04/10 03:38:36;;;;;;;10.63;6.53;;;;;;;5.58;100.00;101825.31;5006707;28;20030;-96
2023/04/10 03:41:37;;;;;;;10.18;6.80;;;;;;;5.49;100.00;101807.88;5009851;28;20023;-96
2023/04/10 03:44:51;;;;;;;9.73;6.53;;;;;;;5.65;100.00;101829.84;5010820;28;20030;-96
2023/04/10 03:47:16;;;;;;;10.15;6.53;;;;;;;5.53;100.00;101816.28;4990834;28;20022;-96
2023/04/10 03:50:18;;;;;;;13.30;7.33;;;;;;;5.33;100.00;101802.91;5006149;28;20088;-96
2023/04/10 03:53:22;;;;;;;10.80;6.70;;;;;;;5.43;100.00;101824.66;4988996;28;20040;-96
2023/04/10 03:56:16;;;;;;;9.45;6.45;;;;;;;5.10;100.00;101788.13;5009861;28;20057;-96
2023/04/10 03:59:11;;;;;;;12.35;7.28;;;;;;;5.21;100.00;101815.94;4935336;28;20052;-96
2023/04/10 04:01:38;;;;;;;11.13;6.65;;;;;;;5.04;100.00;101796.88;5012248;28;20027;-96
2023/04/10 04:05:21;;;;;;;;;;;;;;;;;;;;;
2023/04/10 04:08:16;;;;;;;13.33;7.70;;;;;;;5.03;100.00;101800.53;4952170;28;20314;-96
2023/04/10 04:16:24;;;;;;;13.13;7.85;;;;;;;5.04;100.00;101807.50;5336376;23;20050;-96
2023/04/10 04:19:36;;;;;;;11.68;7.28;;;;;;;5.01;100.00;101803.41;5013685;28;20022;-96
2023/04/10 04:25:51;;;;;;;13.63;7.20;;;;;;;4.73;100.00;101760.97;4990150;28;20027;-96
2023/04/10 04:28:44;;;;;;;13.25;7.97;;;;;;;4.75;100.00;101772.22;4951506;29;20503;-96
2023/04/10 04:46:07;;;;;;;12.20;7.47;;;;;;;5.02;100.00;101790.94;4957443;29;20064;-96
2023/04/10 04:54:58;;;;;;;10.95;7.10;;;;;;;5.10;100.00;101778.28;5036689;23;20057;-96
2023/04/10 04:58:23;;;;;;;11.25;7.28;;;;;;;5.13;100.00;101777.06;4937358;29;20047;-96
2023/04/10 05:04:55;;;;;;;11.07;6.50;;;;;;;5.13;100.00;101774.41;4963680;29;20058;-96
2023/04/10 05:11:27;;;;;;;10.25;6.78;;;;;;;5.19;100.00;101763.00;4962369;29;20054;-96
2023/04/10 05:14:46;;;;;;;10.45;6.22;;;;;;;5.27;100.00;101756.69;4951284;29;20035;-96
2023/04/10 05:17:11;;;;;;;10.32;6.90;;;;;;;5.12;100.00;101719.63;4952103;29;20066;-96
2023/04/10 05:20:14;;;;;;;12.70;7.10;;;;;;;5.39;100.00;101756.94;4952203;29;20712;-96
2023/04/10 05:23:46;;;;;;;;;;;;;;;;;;;;;
2023/04/10 05:26:49;;;;;;;9.30;5.83;;;;;;;5.55;100.00;101750.44;4897728;29;20560;-96
2023/04/10 05:29:35;;;;;;;9.70;6.70;;;;;;;5.64;99.73;101748.41;4897908;29;20289;-96
2023/04/10 05:35:27;;;;;;;10.43;6.38;;;;;;;5.64;98.30;101727.16;4895153;29;20043;-96
2023/04/10 05:41:31;;;;;;;9.73;6.63;;;;;;;5.85;96.79;101724.28;4902491;29;20037;-96
2023/04/10 05:50:08;;;;;;;9.87;6.17;;;;;;;6.28;95.34;101754.19;5261102;22;20573;-96
2023/04/10 05:58:56;;;;;;;9.13;6.25;;;;;;;6.33;93.70;101735.78;5280962;22;20465;-96
2023/04/10 06:01:30;;;;;;;9.10;6.15;;;;;;;6.42;93.71;101734.50;4993439;28;20110;-96
2023/04/10 06:04:14;;;;;;;9.77;6.70;;;;;;;6.54;92.89;101744.56;5008752;28;20026;-96
2023/04/10 06:07:11;;;;;;;9.35;6.07;;;;;;;6.76;92.88;101763.75;4990760;28;20030;-96
2023/04/10 06:12:04;;;;;;;8.82;5.35;;;;;;;6.76;91.70;101737.91;5007175;28;20073;-96
2023/04/10 06:14:32;;;;;;;13.60;6.13;;;;;;;6.90;90.88;101740.56;4992579;28;20094;-96
2023/04/10 06:20:35;;;;;;;8.25;5.90;;;;;;;7.25;90.27;101738.34;5007519;28;20119;-96
2023/04/10 06:23:02;;;;;;;8.57;6.35;;;;;;;7.31;88.53;101728.66;5006365;28;20030;-96
2023/04/10 06:25:27;;;;;;;10.40;7.15;;;;;;;7.38;88.47;101721.47;5005108;28;20030;-96
2023/04/10 06:28:05;;;;;;;9.67;7.00;;;;;;;7.55;87.36;101735.13;4988670;28;20010;-95
2023/04/10 06:30:33;;;;;;;8.93;6.13;;;;;;;7.62;86.66;101728.91;5002547;28;20026;-96
2023/04/10 06:36:25;;;;;;;8.75;6.13;;;;;;;7.68;85.86;101704.84;5010051;28;20101;-96
2023/04/10 06:42:30;;;;;;;9.27;7.00;;;;;;;7.80;83.68;101704.97;5229948;23;20053;-96
2023/04/10 06:45:03;;;;;;;9.68;6.35;;;;;;;7.84;83.78;101700.03;5030548;28;20045;-96
2023/04/10 06:47:42;;;;;;;12.10;7.68;;;;;;;7.96;82.96;101698.28;5032611;28;20053;-96
2023/04/10 06:50:16;;;;;;;12.85;6.68;;;;;;;7.99;83.07;101687.16;5094862;23;20017;-96
2023/04/10 06:52:58;;;;;;;10.27;6.73;;;;;;;8.12;83.64;101674.72;5016023;28;20038;-96
2023/04/10 06:55:52;;;;;;;9.13;6.70;;;;;;;8.42;83.16;101709.53;5031709;28;20292;-96
2023/04/10 07:01:40;;;;;;;9.68;6.72;;;;;;;8.42;81.05;101657.97;5995353;23;20013;-96
2023/04/10 07:10:30;;;;;;;10.18;6.72;;;;;;;8.79;80.21;101677.50;5442771;23;20068;-96
2023/04/10 07:22:18;;;;;;;11.03;6.23;;;;;;;9.03;76.57;101631.34;5560315;23;20053;-96
2023/04/10 07:24:45;;;;;;;11.50;6.90;;;;;;;9.11;75.86;101628.34;5023081;28;20303;-96
2023/04/10 07:27:11;;;;;;;9.50;6.20;;;;;;;9.39;75.86;101653.66;5037789;28;20014;-96
2023/04/10 07:37:34;;;;;;;11.68;6.38;;;;;;;9.60;74.19;101624.72;5726092;23;20037;-96
2023/04/10 07:40:51;;;;;;;8.80;6.07;;;;;;;9.84;73.11;101641.59;5008482;28;20051;-96
2023/04/10 07:43:45;;;;;;;;;;;;;;;;;;;;;
2023/04/10 07:46:59;;;;;;;7.68;5.95;;;;;;;9.79;72.49;101601.31;4996520;28;20057;-96
2023/04/10 08:02:28;;;;;;;6.72;5.28;;;;;;;11.12;67.15;101593.50;4208138;23;20121;-96
2023/04/10 08:08:39;;;;;;;7.00;5.47;;;;;;;11.63;64.91;101586.25;5031059;28;20119;-96
2023/04/10 08:17:37;;;;;;;7.20;5.40;;;;;;;12.01;62.58;101562.34;4951229;29;20092;-96
2023/04/10 08:20:24;;;;;;;6.13;5.00;;;;;;;12.31;61.35;101584.47;4954049;29;20279;-96
2023/04/10 08:26:45;;;;;;;10.23;6.15;;;;;;;12.20;62.20;101583.53;5128796;23;20053;-96
2023/04/10 08:29:11;;;;;;;7.18;5.40;;;;;;;12.36;61.33;101574.59;5010142;28;20034;-96
2023/04/10 08:32:07;;;;;;;7.45;6.13;;;;;;;12.44;60.91;101564.47;5015444;28;20045;-96
2023/04/10 08:38:12;;;;;;;7.53;5.35;;;;;;;12.66;62.06;101554.50;5014796;28;20058;-96
2023/04/10 08:40:57;;;;;;;7.13;6.07;;;;;;;13.01;60.00;101563.13;5045673;23;20025;-96
2023/04/10 08:43:38;;;;;;;6.17;5.13;;;;;;;13.11;59.65;101547.06;5036366;28;20265;-96
2023/04/10 08:46:21;;;;;;;;;;;;;;;;;;;;;
2023/04/10 08:54:56;;;;;;;7.43;5.93;;;;;;;13.14;59.52;101559.19;5010054;28;20050;-96
2023/04/10 08:57:28;;;;;;;7.85;6.00;;;;;;;13.08;60.19;101552.13;5006584;28;20038;-96
2023/04/10 09:02:59;;;;;;;7.47;5.82;;;;;;;13.27;59.77;101563.34;4995988;28;20042;-96
2023/04/10 09:05:31;;;;;;;9.52;5.65;;;;;;;13.15;59.65;101537.41;5010232;28;20033;-96
2023/04/10 09:07:57;;;;;;;8.93;5.57;;;;;;;13.13;58.82;101528.81;5009789;28;20030;-96
2023/04/10 09:10:31;;;;;;;8.37;5.37;;;;;;;13.25;59.86;101531.28;4990821;28;20305;-96
2023/04/10 09:13:09;;;;;;;9.85;5.47;;;;;;;13.11;59.09;101539.00;5011955;28;20038;-96
2023/04/10 09:21:34;;;;;;;7.43;5.22;;;;;;;13.40;58.89;101549.47;5192607;23;20101;-96
2023/04/10 09:24:03;;;;;;;6.60;5.60;;;;;;;13.26;59.84;101513.28;4917601;29;20043;-96
2023/04/10 09:27:24;;;;;;;7.28;5.30;;;;;;;13.66;58.38;101538.84;4939097;28;20020;-96
2023/04/10 09:30:00;;;;;;;7.55;5.60;;;;;;;13.55;59.87;101537.97;4945906;29;20047;-96
2023/04/10 09:42:36;;;;;;;5.80;4.85;;;;;;;13.46;58.68;101481.13;5230647;23;20064;-96
2023/04/10 09:47:38;;;;;;;7.47;5.38;;;;;;;13.76;59.24;101468.06;5096204;23;20056;-96
2023/04/10 09:50:41;;;;;;;6.27;4.73;;;;;;;13.81;58.66;101454.59;5016315;28;20050;-96
2023/04/10 09:53:13;;;;;;;7.90;5.13;;;;;;;13.75;58.25;101466.44;5014194;28;20072;-96
2023/04/10 09:55:42;;;;;;;6.32;5.50;;;;;;;13.74;58.75;101459.44;4996633;28;20030;-96
2023/04/10 10:05:01;;;;;;;6.82;4.93;;;;;;;14.06;59.47;101480.81;4975171;28;20065;-96
2023/04/10 10:07:34;;;;;;;6.82;5.13;;;;;;;14.19;58.63;101466.03;4973494;29;20031;-96
2023/04/10 10:10:27;;;;;;;5.72;4.80;;;;;;;14.31;57.58;101444.22;5230111;23;20136;-96
2023/04/10 10:13:25;;;;;;;5.97;5.10;;;;;;;14.61;57.55;101449.91;5003105;28;20057;-96
2023/04/10 10:33:20;;;;;;;5.55;4.75;;;;;;;15.80;55.70;101431.53;5283906;23;20076;-96
2023/04/10 10:37:01;;;;;;;4.20;3.80;;;;;;;15.93;53.78;101400.41;5037306;28;20033;-96
2023/04/10 12:40:21;;;;;;;4.37;3.00;;;;;;;17.70;46.47;101214.16;5190399;23;20092;-96
2023/04/10 12:43:25;;;;;;;3.17;2.67;;;;;;;17.89;46.48;101231.44;5032318;28;20030;-96
2023/04/10 12:48:39;;;;;;;3.13;2.83;;;;;;;17.36;47.17;101206.28;5091495;23;20061;-96
2023/04/10 12:51:08;;;;;;;2.80;2.60;;;;;;;17.30;47.07;101210.16;5014771;28;20030;-96
2023/04/10 12:57:16;;;;;;;;;;;;;;;;;;;;;
2023/04/10 13:03:13;;;;;;;3.30;2.60;;;;;;;17.07;48.70;101202.63;5698019;22;20309;-96
2023/04/10 13:48:20;;;;;;;4.05;2.55;;;;;;;16.63;49.35;101109.84;5152067;23;20080;-96
2023/04/10 13:51:02;;;;;;;3.70;2.55;;;;;;;16.73;49.54;101098.09;5033660;28;20018;-96
2023/04/10 13:56:53;;;;;;;;;;;;;;;;;;;;;
2023/04/10 14:33:36;;;;;;;4.07;2.50;;;;;;;15.40;64.10;101053.41;5389300;23;20061;-96
2023/04/10 15:49:40;;;;;;;3.50;2.40;;;;;;;14.04;72.68;100909.09;5010106;23;20073;-96
2023/04/10 15:55:51;;;;;;;3.00;2.70;;;;;;;14.03;72.86;100915.56;5015636;23;20800;-96
2023/04/10 16:10:30;;;;;;;5.10;2.55;;;;;;;13.87;73.17;100892.50;5570325;23;20046;-96
2023/04/10 16:18:07;;;;;;;6.38;3.28;;;;;;;13.70;74.60;100847.84;5013560;28;20050;-96
2023/04/10 16:29:14;;;;;;;3.53;2.70;;;;;;;13.68;75.84;100874.28;5529695;23;20054;-96
2023/04/10 17:16:27;;;;;;;5.88;4.35;;;;;;;10.90;100.00;100929.28;5115929;23;20929;-96
2023/04/10 17:19:24;;;;;;;7.85;4.80;;;;;;;10.95;100.00;100958.00;5000711;28;20033;-96
2023/04/10 17:22:05;;;;;;;;;;;;;;;;;;;;;
2023/04/10 17:24:37;;;;;;;9.02;4.97;;;;;;;10.70;100.00;100941.47;4999489;28;20038;-95
2023/04/10 17:27:02;;;;;;;8.65;4.75;;;;;;;10.68;100.00;100946.28;4977676;28;20034;-95
2023/04/10 17:29:38;;;;;;;8.30;4.67;;;;;;;10.53;100.00;100935.44;4977583;28;20089;-95
2023/04/10 17:32:10;;;;;;;7.57;5.00;;;;;;;10.45;100.00;100926.78;4977854;28;20053;-94
2023/04/10 17:35:01;;;;;;;9.00;5.50;;;;;;;10.46;100.00;100927.59;4994596;28;20508;-95
2023/04/10 17:37:48;;;;;;;10.98;5.75;;;;;;;10.50;100.00;100952.00;4996236;28;20026;-94
2023/04/10 17:40:13;;;;;;;13.45;5.45;;;;;;;10.41;100.00;100939.06;4996078;28;20066;-94
2023/04/10 17:42:40;;;;;;;9.50;5.57;;;;;;;10.31;100.00;100936.28;4978900;28;20064;-94
2023/04/10 17:45:14;;;;;;;9.02;5.82;;;;;;;10.38;100.00;100944.09;4996340;28;20026;-94
2023/04/10 17:47:49;;;;;;;8.60;5.90;;;;;;;10.35;100.00;100942.75;4996871;28;20022;-95
2023/04/10 17:50:20;;;;;;;8.40;5.55;;;;;;;10.34;100.00;100943.81;4994791;28;20023;-93
2023/04/10 17:53:31;;;;;;;12.23;6.80;;;;;;;10.36;100.00;100946.22;4996428;28;20042;-94
2023/04/10 17:56:06;;;;;;;8.40;5.55;;;;;;;10.27;100.00;100932.47;4919153;29;20040;-95
2023/04/10 17:58:42;;;;;;;8.47;5.77;;;;;;;10.14;100.00;100913.09;4935022;29;20047;-94
2023/04/10 18:01:07;;;;;;;7.77;6.10;;;;;;;10.27;100.00;100921.75;4919371;29;20343;-93
2023/04/10 18:03:53;;;;;;;7.55;5.32;;;;;;;10.10;100.00;100885.19;4934270;29;20079;-94
2023/04/10 18:07:00;;;;;;;7.65;5.60;;;;;;;10.22;100.00;100895.75;4895064;29;20043;-94
2023/04/10 18:19:09;;;;;;;7.97;4.90;;;;;;;9.90;100.00;100839.47;5013693;28;20060;-95
2023/04/10 18:21:53;;;;;;;7.57;5.22;;;;;;;9.92;100.00;100829.31;4995609;28;20485;-94
2023/04/10 18:24:19;;;;;;;6.40;4.55;;;;;;;9.91;100.00;100827.72;4984269;28;20022;-94
2023/04/10 18:26:50;;;;;;;5.33;3.83;;;;;;;9.81;100.00;100834.59;4992972;28;20041;-93
2023/04/10 18:29:37;;;;;;;5.70;3.78;;;;;;;9.84;100.00;100854.69;4975318;28;20126;-95
2023/04/10 18:32:43;;;;;;;5.38;3.08;;;;;;;9.79;100.00;100871.50;4990775;28;20030;-94
2023/04/10 18:35:15;;;;;;;4.35;3.42;;;;;;;9.75;100.00;100861.56;4991533;28;20085;-93
2023/04/10 18:37:50;;;;;;;6.85;3.88;;;;;;;9.61;100.00;100845.88;4974800;28;20069;-95
2023/04/10 18:40:55;;;;;;;7.93;4.10;;;;;;;9.69;100.00;100855.31;4990947;28;20081;-94
2023/04/10 18:48:42;;;;;;;6.57;4.20;;;;;;;9.62;100.00;100884.16;4993410;28;20274;-93
2023/04/10 18:51:45;;;;;;;5.25;4.20;;;;;;;9.60;100.00;100884.38;4978037;28;20026;-94
2023/04/10 18:54:10;;;;;;;5.78;3.90;;;;;;;9.47;100.00;100828.59;5008407;28;20034;-94
2023/04/10 18:57:12;;;;;;;4.47;2.80;;;;;;;9.54;100.00;100858.66;5003855;28;20041;-93
2023/04/10 18:59:56;;;;;;;3.65;2.10;;;;;;;9.46;100.00;100853.72;4975339;28;20038;-94
2023/04/10 19:02:39;;;;;;;3.60;2.35;;;;;;;9.43;100.00;100879.13;4994101;28;20161;-94
2023/04/10 19:05:08;;;;;;;4.05;2.17;;;;;;;9.40;100.00;100850.19;4994512;28;20033;-94
2023/04/10 19:08:16;;;;;;;;;;;;;;;;;;;;;
2023/04/10 19:10:47;;;;;;;4.20;2.13;;;;;;;9.24;100.00;100787.69;4969899;28;20042;-93
2023/04/10 19:13:21;;;;;;;5.25;2.75;;;;;;;9.22;100.00;100793.28;5033215;23;20030;-94
2023/04/10 19:16:37;;;;;;;2.78;1.90;;;;;;;9.30;100.00;100794.72;4993173;28;20031;-95
2023/04/10 19:19:05;;;;;;;3.20;1.90;;;;;;;9.24;100.00;100814.41;4971182;28;20035;-93
2023/04/10 19:22:10;;;;;;;4.20;2.10;;;;;;;9.27;100.00;100831.84;5009089;28;20094;-93
2023/04/10 19:25:01;;;;;;;3.07;1.97;;;;;;;9.26;100.00;100865.00;4979350;28;20319;-93
2023/04/10 19:27:27;;;;;;;4.57;2.20;;;;;;;9.08;100.00;100829.47;4997860;28;20052;-94
2023/04/10 19:29:52;;;;;;;6.15;2.33;;;;;;;9.24;100.00;100841.16;4997616;28;20509;-94
2023/04/10 19:32:24;;;;;;;3.60;2.73;;;;;;;9.11;100.00;100804.94;5001197;28;20034;-93
2023/04/10 19:35:05;;;;;;;4.90;2.38;;;;;;;9.15;100.00;100818.59;4988054;28;20022;-94
2023/04/10 19:37:33;;;;;;;6.47;2.10;;;;;;;9.23;100.00;100835.00;5004911;28;20038;-93
2023/04/10 19:40:05;;;;;;;2.78;1.90;;;;;;;9.14;100.00;100809.75;4999806;28;20497;-93
2023/04/10 19:43:00;;;;;;;4.30;1.80;;;;;;;9.09;100.00;100785.66;4998598;28;20022;-93
2023/04/10 19:45:38;;;;;;;2.53;1.70;;;;;;;9.13;100.00;100789.41;4898262;29;20044;-93
2023/04/10 19:48:14;;;;;;;9.07;1.93;;;;;;;9.12;100.00;100809.22;4913440;29;20474;-93
2023/04/10 19:51:14;;;;;;;4.45;2.28;;;;;;;9.19;100.00;100822.41;4896680;29;20080;-93
2023/04/10 19:54:01;;;;;;;6.05;2.47;;;;;;;9.19;100.00;100812.50;5190061;23;20592;-94
2023/04/10 19:59:27;;;;;;;7.47;1.95;;;;;;;9.04;100.00;100799.75;4917808;29;20043;-93
2023/04/10 20:01:54;;;;;;;4.13;1.77;;;;;;;9.11;100.00;100810.28;4998161;28;20042;-93
2023/04/10 20:04:35;;;;;;;6.45;1.92;;;;;;;9.11;100.00;100815.63;4986586;28;20046;-93
2023/04/10 20:10:18;;;;;;;5.60;1.80;;;;;;;8.98;100.00;100789.22;4950488;29;20588;-92
2023/04/10 20:12:58;;;;;;;7.97;1.97;;;;;;;8.99;100.00;100798.88;4986529;28;20042;-93
2023/04/10 20:15:26;;;;;;;5.27;1.67;;;;;;;9.00;100.00;100787.13;4991549;28;20281;-94
2023/04/10 20:18:01;;;;;;;12.50;1.98;;;;;;;8.93;100.00;100779.28;4992246;28;20030;-93
2023/04/10 20:20:26;;;;;;;6.63;2.00;;;;;;;8.84;100.00;100765.56;4992045;28;20019;-93
2023/04/10 20:25:27;;;;;;;7.47;1.75;;;;;;;8.89;100.00;100781.66;5033723;23;20123;-93
2023/04/10 20:27:52;;;;;;;7.67;1.90;;;;;;;8.86;100.00;100775.97;5011658;28;20041;-93
2023/04/10 20:30:20;;;;;;;7.50;1.73;;;;;;;8.86;100.00;100789.34;5010880;28;20065;-92
2023/04/10 20:32:46;;;;;;;6.67;1.70;;;;;;;8.83;100.00;100798.66;5018688;23;20025;-93
2023/04/10 20:35:25;;;;;;;6.95;1.65;;;;;;;8.80;100.00;100815.19;5011321;28;20066;-94
2023/04/10 20:38:05;;;;;;;5.23;1.80;;;;;;;8.68;100.00;100787.78;4990091;28;20102;-93
2023/04/10 20:40:34;;;;;;;8.97;1.80;;;;;;;8.64;100.00;100788.25;5018296;28;20363;-93
2023/04/10 20:45:37;;;;;;;6.43;1.90;;;;;;;8.69;100.00;100787.53;5001146;28;20058;-92
2023/04/10 20:48:16;;;;;;;4.47;1.90;;;;;;;8.59;100.00;100782.03;5035918;23;20053;-92
2023/04/10 20:50:44;;;;;;;6.47;2.13;;;;;;;8.64;100.00;100801.63;5020873;28;20026;-93
2023/04/10 20:53:18;;;;;;;14.55;2.10;;;;;;;8.49;100.00;100788.03;5043882;23;20492;-93
2023/04/10 20:55:43;;;;;;;7.82;2.17;;;;;;;8.44;100.00;100766.56;5012496;28;20029;-93
2023/04/10 20:58:15;;;;;;;9.43;1.93;;;;;;;8.42;100.00;100768.66;5011763;28;20097;-92
2023/04/10 21:00:52;;;;;;;8.02;1.83;;;;;;;8.34;100.00;100768.06;5011240;28;20018;-93
2023/04/10 21:03:21;;;;;;;8.93;2.30;;;;;;;8.33;100.00;100779.78;5003952;28;20031;-93
2023/04/10 21:06:05;;;;;;;7.15;2.00;;;;;;;8.23;100.00;100776.94;4990735;28;20038;-93
2023/04/10 21:08:37;;;;;;;10.27;2.53;;;;;;;8.22;100.00;100766.50;4990764;28;20034;-93
2023/04/10 21:11:08;;;;;;;8.03;2.33;;;;;;;8.19;100.00;100762.47;4990938;28;20018;-93
2023/04/10 21:13:37;;;;;;;14.63;2.57;;;;;;;8.22;100.00;100777.97;4987986;23;20320;-93
2023/04/10 21:16:08;;;;;;;11.25;3.17;;;;;;;8.16;100.00;100770.97;5011117;28;20089;-92
2023/04/10 21:18:37;;;;;;;13.27;3.20;;;;;;;8.16;100.00;100776.31;5010358;28;20448;-92
2023/04/10 21:21:11;;;;;;;11.05;3.05;;;;;;;8.15;100.00;100791.50;5010607;28;20699;-92
2023/04/10 21:23:39;;;;;;;10.82;2.80;;;;;;;8.15;100.00;100786.16;4999347;28;20130;-92
2023/04/10 21:26:05;;;;;;;15.10;2.92;;;;;;;8.21;100.00;100786.25;4995335;28;20473;-93
2023/04/10 21:28:31;;;;;;;12.88;3.08;;;;;;;8.22;100.00;100787.88;4993933;28;20238;-92
2023/04/10 21:31:00;;;;;;;13.43;2.92;;;;;;;8.18;100.00;100782.22;4994827;28;20034;-94
2023/04/10 21:33:30;;;;;;;9.30;2.90;;;;;;;8.04;100.00;100761.16;4994667;28;20026;-93
2023/04/10 21:35:55;;;;;;;11.53;2.47;;;;;;;8.11;100.00;100765.53;4976903;28;20030;-93
2023/04/10 21:39:10;;;;;;;11.27;2.90;;;;;;;7.96;100.00;100732.22;4994184;28;20335;-93
2023/04/10 21:41:14;;;;;;;10.30;2.83;;;;;;;7.92;100.00;100754.31;4986598;28;20041;-92
2023/04/10 21:43:59;;;;;;;14.90;3.37;;;;;;;7.90;100.00;100775.06;4993807;28;20030;-92
2023/04/10 21:46:24;;;;;;;11.13;2.90;;;;;;;8.04;100.00;100808.41;4993722;28;20321;-92
2023/04/10 21:49:26;;;;;;;14.43;3.17;;;;;;;8.04;100.00;100803.84;4993199;28;20173;-92
2023/04/10 21:52:14;;;;;;;14.27;2.80;;;;;;;8.00;100.00;100796.59;4994082;28;20093;-91
2023/04/10 21:55:04;;;;;;;12.67;2.53;;;;;;;7.96;100.00;100790.09;5016720;23;20311;-92
2023/04/10 21:57:38;;;;;;;8.50;2.53;;;;;;;7.81;100.00;100764.78;5013735;28;20490;-92
2023/04/10 22:00:32;;;;;;;9.82;2.65;;;;;;;7.89;100.00;100779.59;5012901;28;20481;-92
2023/04/10 22:03:08;;;;;;;11.05;2.65;;;;;;;7.84;100.00;100764.31;5007493;28;20030;-92
2023/04/10 22:05:34;;;;;;;17.58;2.85;;;;;;;7.88;100.00;100764.63;4975612;28;20038;-92
2023/04/10 22:07:59;;;;;;;10.93;2.60;;;;;;;7.93;100.00;100748.72;4993616;28;20258;-93
2023/04/10 22:10:30;;;;;;;14.50;2.93;;;;;;;7.95;100.00;100759.97;4993136;28;20277;-91
2023/04/10 22:12:56;;;;;;;14.70;2.50;;;;;;;7.87;100.00;100755.84;4993613;28;20106;-92
2023/04/10 22:15:37;;;;;;;14.27;3.30;;;;;;;7.94;100.00;100770.88;4993866;28;20101;-92
2023/04/10 22:18:14;;;;;;;15.73;3.15;;;;;;;7.82;100.00;100760.28;4993604;28;20026;-91
2023/04/10 22:20:39;;;;;;;12.73;2.55;;;;;;;7.88;100.00;100756.63;4991673;28;20065;-92
2023/04/10 22:23:14;;;;;;;15.70;2.97;;;;;;;7.98;100.00;100764.81;5038372;23;20062;-93
2023/04/10 22:25:39;;;;;;;12.98;3.00;;;;;;;8.16;100.00;100770.97;5012880;28;20476;-93
2023/04/10 22:28:11;;;;;;;17.20;2.83;;;;;;;8.17;100.00;100759.25;4995504;28;20072;-92
2023/04/10 22:30:57;;;;;;;13.98;3.15;;;;;;;8.20;100.00;100753.41;5012599;28;20030;-93
2023/04/10 22:33:23;;;;;;;17.60;3.30;;;;;;;8.27;100.00;100755.91;5002493;28;20050;-92
2023/04/10 22:35:48;;;;;;;11.83;3.20;;;;;;;8.37;100.00;100765.94;4992670;28;20462;-92
2023/04/10 22:38:14;;;;;;;20.13;3.20;;;;;;;8.40;100.00;100758.25;4991608;28;20117;-92
2023/04/10 22:40:49;;;;;;;15.25;2.75;;;;;;;8.37;100.00;100741.91;4992774;28;20105;-91
2023/04/10 22:43:36;;;;;;;;;;;;;;;;;;;;;
2023/04/10 22:46:05;;;;;;;14.40;2.80;;;;;;;8.40;100.00;100736.09;4933979;29;20452;-93
2023/04/10 22:49:06;;;;;;;17.20;3.22;;;;;;;8.38;100.00;100743.53;5004082;28;20030;-92
2023/04/10 22:51:40;;;;;;;16.10;2.83;;;;;;;8.34;100.00;100749.38;4984633;28;20126;-93
2023/04/10 22:54:06;;;;;;;15.03;2.90;;;;;;;8.44;100.00;100759.38;5015541;28;20301;-92
2023/04/10 22:56:43;;;;;;;14.05;3.08;;;;;;;8.42;100.00;100755.31;5007289;28;20037;-92
2023/04/10 23:02:52;;;;;;;18.30;2.97;;;;;;;8.33;100.00;100746.91;4986569;28;20116;-91
2023/04/10 23:05:17;;;;;;;13.73;2.70;;;;;;;8.36;100.00;100753.66;4992624;28;20633;-93
2023/04/10 23:07:43;;;;;;;19.50;3.17;;;;;;;8.41;100.00;100759.03;4992469;28;20025;-92
2023/04/10 23:10:08;;;;;;;21.40;3.37;;;;;;;8.37;100.00;100757.94;4991905;28;20643;-93
2023/04/10 23:12:40;;;;;;;22.20;3.50;;;;;;;8.37;100.00;100776.63;4991486;28;20513;-93
2023/04/10 23:15:14;;;;;;;22.48;3.40;;;;;;;8.16;100.00;100753.06;4992687;28;20030;-93
2023/04/10 23:17:39;;;;;;;26.52;3.67;;;;;;;8.17;100.00;100764.59;4974574;28;20505;-93
2023/04/10 23:20:11;;;;;;;16.63;3.23;;;;;;;8.15;100.00;100766.69;4991801;28;20030;-93
2023/04/10 23:22:36;;;;;;;13.27;3.20;;;;;;;8.19;100.00;100770.50;4980610;28;20033;-93
2023/04/10 23:25:10;;;;;;;18.47;3.33;;;;;;;8.23;100.00;100779.59;4999191;28;20030;-91
2023/04/10 23:27:35;;;;;;;22.52;3.53;;;;;;;8.19;100.00;100781.16;4998672;28;20486;-92
2023/04/10 23:30:11;;;;;;;;;;;;;;;;;;;;;
2023/04/10 23:32:37;;;;;;;21.50;3.00;;;;;;;8.05;100.00;100767.31;4987144;28;20034;-92
2023/04/10 23:35:11;;;;;;;23.60;3.50;;;;;;;8.08;100.00;100774.84;4992215;28;20117;-93
2023/04/10 23:37:40;;;;;;;19.27;3.17;;;;;;;8.03;100.00;100770.22;4992146;28;20359;-92
2023/04/10 23:40:06;;;;;;;18.95;2.90;;;;;;;8.03;100.00;100774.75;4992153;28;20031;-92
2023/04/10 23:42:31;;;;;;;17.45;2.65;;;;;;;7.91;100.00;100774.81;4992313;28;20026;-93
2023/04/10 23:45:03;;;;;;;22.27;3.50;;;;;;;7.77;100.00;100763.66;4992454;28;20026;-93
2023/04/10 23:47:40;;;;;;;20.25;3.13;;;;;;;7.76;100.00;100772.69;4992676;28;20382;-92
2023/04/10 23:50:16;;;;;;;21.25;3.25;;;;;;;7.80;100.00;100787.19;4998748;28;20025;-92
2023/04/10 23:52:41;;;;;;;23.48;3.80;;;;;;;7.95;100.00;100789.31;5007363;28;20027;-93
2023/04/10 23:55:16;;;;;;;20.50;4.17;;;;;;;7.98;100.00;100794.16;4976543;28;20027;-92
2023/04/10 23:57:51;;;;;;;24.15;3.40;;;;;;;8.03;100.00;100794.22;4991410;28;20026;-92
